Time;durP1;ratioP1;P1;durP2;ratioP2;P2;SDS_P1;SDS_P2;PMS_P1;PMS_P2;Temp;Humidity;BMP_temperature;BMP_pressure;BME280_temperature;BME280_humidity;BME280_pressure;Samples;Min_cycle;Max_cycle;Signal;HPM_P1;HPM_P2
2023/05/09 00:01:16;;;;;;;;;;;;;;;27.53;41.89;94489.03;5023619;28;8736;-62
2023/05/09 00:03:42;;;;;;;;;;;;;;;27.50;42.39;94481.03;5018146;28;7025;-62
2023/05/09 00:06:08;;;;;;;;;;;;;;;27.53;41.94;94482.78;5023876;28;7541;-62
2023/05/09 00:08:34;;;;;;;;;;;;;;;27.53;41.93;94483.50;5020928;28;7900;-62
2023/05/09 00:11:03;;;;;;;;;;;;;;;27.54;42.01;94484.25;5019599;28;9429;-62
2023/05/09 00:13:29;;;;;;;;;;;;;;;27.54;41.94;94475.97;5016915;28;7586;-62
2023/05/09 00:15:57;;;;;;;;;;;;;;;27.52;41.91;94479.25;5022638;28;9741;-62
2023/05/09 00:18:23;;;;;;;;;;;;;;;27.52;41.88;94472.97;5021077;28;7306;-62
2023/05/09 00:20:52;;;;;;;;;;;;;;;27.51;42.00;94475.00;5013442;28;8900;-62
2023/05/09 00:23:20;;;;;;;;;;;;;;;27.48;42.26;94469.78;4996085;28;8342;-62
2023/05/09 00:25:46;;;;;;;;;;;;;;;27.47;42.05;94471.06;5015067;28;8723;-62
2023/05/09 00:28:11;;;;;;;;;;;;;;;27.43;42.18;94468.56;5016087;28;7095;-62
2023/05/09 00:30:40;;;;;;;;;;;;;;;27.47;41.72;94473.81;5004947;28;7178;-62
2023/05/09 00:33:06;;;;;;;;;;;;;;;27.46;41.76;94461.25;5023829;28;9270;-62
2023/05/09 00:35:34;;;;;;;;;;;;;;;27.46;42.15;94466.78;5016668;28;10021;-62
2023/05/09 00:38:00;;;;;;;;;;;;;;;27.47;41.54;94468.28;5015616;28;7252;-62
2023/05/09 00:40:26;;;;;;;;;;;;;;;27.41;42.08;94462.81;5022187;28;9289;-62
2023/05/09 00:42:52;;;;;;;;;;;;;;;27.40;42.11;94466.88;5017981;28;7604;-62
2023/05/09 00:45:23;;;;;;;;;;;;;;;27.40;42.06;94461.34;5022196;28;7038;-62
2023/05/09 00:47:50;;;;;;;;;;;;;;;27.39;42.26;94461.84;5015817;28;9139;-62
2023/05/09 00:50:25;;;;;;;;;;;;;;;27.38;42.42;94469.38;5024025;28;7245;-62
2023/05/09 00:52:58;;;;;;;;;;;;;;;27.38;42.10;94463.84;5017906;28;7025;-62
2023/05/09 00:55:26;;;;;;;;;;;;;;;27.37;42.13;94454.09;5023864;28;7037;-62
2023/05/09 00:57:55;;;;;;;;;;;;;;;27.36;42.07;94452.59;5015461;28;7015;-62
2023/05/09 01:00:24;;;;;;;;;;;;;;;27.35;42.00;94453.88;4997925;28;9032;-62
2023/05/09 01:02:58;;;;;;;;;;;;;;;27.34;42.20;94449.56;5010633;28;7281;-62
2023/05/09 01:05:42;;;;;;;;;;;;;;;27.37;42.33;94442.28;5024992;28;7496;-62
2023/05/09 01:08:33;;;;;;;;;;;;;;;27.35;42.89;94442.81;5024326;28;9056;-62
2023/05/09 01:11:21;;;;;;;;;;;;;;;27.39;42.26;94442.50;5008042;28;7277;-62
2023/05/09 01:13:53;;;;;;;;;;;;;;;27.36;42.12;94440.81;5018439;28;7208;-61
2023/05/09 01:16:58;;;;;;;;;;;;;;;27.35;42.32;94437.28;5015086;28;7459;-62
2023/05/09 01:19:57;;;;;;;;;;;;;;;27.34;42.18;94430.22;5020606;28;7407;-62
2023/05/09 01:22:33;;;;;;;;;;;;;;;27.34;41.63;94430.22;5017984;28;8934;-62
2023/05/09 01:25:24;;;;;;;;;;;;;;;27.34;42.32;94421.22;5019497;28;9108;-62
2023/05/09 01:28:15;;;;;;;;;;;;;;;27.34;42.30;94426.75;5020884;28;8719;-62
2023/05/09 01:30:46;;;;;;;;;;;;;;;27.31;42.17;94417.47;5016681;28;7147;-62
2023/05/09 01:33:41;;;;;;;;;;;;;;;27.31;42.33;94411.97;5011199;28;7036;-62
2023/05/09 01:36:16;;;;;;;;;;;;;;;27.30;42.58;94417.97;5018055;28;9036;-61
2023/05/09 01:38:58;;;;;;;;;;;;;;;27.32;42.28;94418.22;5021161;28;8211;-62
2023/05/09 01:42:09;;;;;;;;;;;;;;;27.32;42.20;94407.91;5020150;28;6887;-62
2023/05/09 01:44:41;;;;;;;;;;;;;;;27.28;42.40;94415.75;5014929;28;7243;-62
2023/05/09 01:47:15;;;;;;;;;;;;;;;27.31;42.36;94411.97;4999414;28;9189;-62
2023/05/09 01:50:01;;;;;;;;;;;;;;;27.29;41.98;94413.75;5016617;28;8870;-63
2023/05/09 01:52:54;;;;;;;;;;;;;;;27.27;42.26;94411.50;5016689;28;8459;-62
2023/05/09 01:55:27;;;;;;;;;;;;;;;27.24;42.51;94412.53;5013770;28;8943;-62
2023/05/09 01:57:56;;;;;;;;;;;;;;;27.29;42.39;94406.22;5014658;28;9307;-62
2023/05/09 02:00:36;;;;;;;;;;;;;;;27.29;42.09;94411.72;5003896;28;7177;-62
2023/05/09 02:03:13;;;;;;;;;;;;;;;27.30;42.24;94409.69;4999849;28;7554;-62
2023/05/09 02:05:56;;;;;;;;;;;;;;;27.30;42.27;94401.41;4997563;28;8014;-62
2023/05/09 02:08:25;;;;;;;;;;;;;;;27.30;41.78;94410.44;5013566;28;7505;-62
2023/05/09 02:10:54;;;;;;;;;;;;;;;27.29;42.15;94414.50;5017942;28;7159;-61
2023/05/09 02:13:27;;;;;;;;;;;;;;;27.29;42.16;94411.72;5019576;28;7030;-61
2023/05/09 02:16:00;;;;;;;;;;;;;;;27.31;42.30;94411.22;5014223;28;7246;-62
2023/05/09 02:18:28;;;;;;;;;;;;;;;27.31;42.20;94411.97;5019053;28;9030;-62
2023/05/09 02:21:03;;;;;;;;;;;;;;;27.31;42.44;94405.69;5005260;28;7055;-62
2023/05/09 02:23:39;;;;;;;;;;;;;;;27.29;42.77;94400.69;5021591;28;7286;-62
2023/05/09 02:26:06;;;;;;;;;;;;;;;27.29;42.07;94403.44;5016039;28;7023;-62
2023/05/09 02:28:59;;;;;;;;;;;;;;;27.28;42.34;94401.19;4997071;28;7208;-62
2023/05/09 02:32:21;;;;;;;;;;;;;;;27.31;42.48;94394.63;4995251;28;9674;-62
2023/05/09 02:35:07;;;;;;;;;;;;;;;27.27;42.13;94400.47;4934149;28;7411;-62
2023/05/09 02:37:44;;;;;;;;;;;;;;;27.28;42.34;94401.94;4933145;28;7136;-62
2023/05/09 02:40:46;;;;;;;;;;;;;;;27.29;42.09;94395.16;4927865;28;8709;-62
2023/05/09 02:43:26;;;;;;;;;;;;;;;27.24;42.41;94395.97;4917980;29;9283;-62
2023/05/09 02:46:01;;;;;;;;;;;;;;;27.21;42.73;94388.72;4919959;28;8714;-62
2023/05/09 02:48:46;;;;;;;;;;;;;;;27.22;42.53;94392.25;4936806;28;6981;-62
2023/05/09 02:51:12;;;;;;;;;;;;;;;27.19;42.61;94385.75;4934874;28;7600;-62
2023/05/09 02:53:52;;;;;;;;;;;;;;;27.16;42.47;94386.03;4920871;28;7444;-62
2023/05/09 02:56:18;;;;;;;;;;;;;;;27.14;43.05;94380.31;4931878;28;7059;-62
2023/05/09 02:58:49;;;;;;;;;;;;;;;27.12;41.97;94375.28;4928928;28;7277;-62
2023/05/09 03:01:18;;;;;;;;;;;;;;;27.12;42.68;94377.31;4926198;28;7100;-62
2023/05/09 03:04:01;;;;;;;;;;;;;;;27.12;42.56;94377.31;4931937;28;8786;-62
2023/05/09 03:06:48;;;;;;;;;;;;;;;27.11;42.67;94375.81;4935548;28;7351;-62
2023/05/09 03:09:16;;;;;;;;;;;;;;;27.12;42.23;94375.28;5001619;28;8986;-62
2023/05/09 03:11:44;;;;;;;;;;;;;;;27.15;42.69;94377.00;5010313;28;7114;-62
2023/05/09 03:14:12;;;;;;;;;;;;;;;27.15;42.48;94382.53;5014926;28;7043;-62
2023/05/09 03:16:38;;;;;;;;;;;;;;;27.15;42.61;94385.28;5012135;28;7021;-62
2023/05/09 03:19:04;;;;;;;;;;;;;;;27.14;42.67;94375.53;5015637;28;8722;-62
2023/05/09 03:21:32;;;;;;;;;;;;;;;27.17;42.45;94377.22;5010372;28;8758;-62
2023/05/09 03:24:03;;;;;;;;;;;;;;;27.18;42.47;94375.22;4997682;28;9059;-62
2023/05/09 03:26:59;;;;;;;;;;;;;;;27.16;42.47;94370.22;4993919;28;7384;-62
2023/05/09 03:29:48;;;;;;;;;;;;;;;27.15;42.48;94368.72;4978673;28;7476;-62
2023/05/09 03:32:15;;;;;;;;;;;;;;;27.12;42.51;94371.78;4943079;28;7999;-62
2023/05/09 03:34:56;;;;;;;;;;;;;;;27.10;41.97;94363.28;4965716;28;9261;-62
2023/05/09 03:37:24;;;;;;;;;;;;;;;27.13;42.54;94374.03;4965000;28;9321;-62
2023/05/09 03:39:50;;;;;;;;;;;;;;;27.11;42.57;94368.28;4957027;28;9386;-62
2023/05/09 03:42:25;;;;;;;;;;;;;;;27.10;42.40;94361.25;4955216;28;6983;-61
2023/05/09 03:45:11;;;;;;;;;;;;;;;27.11;42.40;94356.47;4959385;28;9072;-61
2023/05/09 03:47:56;;;;;;;;;;;;;;;27.10;42.53;94363.28;4979214;28;8708;-62
2023/05/09 03:50:31;;;;;;;;;;;;;;;27.05;42.61;94362.09;4986390;28;9039;-62
2023/05/09 03:53:06;;;;;;;;;;;;;;;27.07;42.72;94356.03;4970097;28;8943;-62
2023/05/09 03:55:49;;;;;;;;;;;;;;;27.09;42.42;94359.78;4974844;28;7033;-61
2023/05/09 03:58:15;;;;;;;;;;;;;;;27.08;42.66;94361.03;4984877;28;7029;-62
2023/05/09 04:01:00;;;;;;;;;;;;;;;27.08;42.38;94360.31;4968610;28;9040;-62
2023/05/09 04:04:05;;;;;;;;;;;;;;;27.05;42.98;94362.09;4990308;28;7230;-62
2023/05/09 04:10:08;;;;;;;;;;;;;;;27.00;42.65;94368.41;5024835;28;7035;-62
2023/05/09 04:13:03;;;;;;;;;;;;;;;27.00;43.02;94370.41;5022728;28;7467;-62
2023/05/09 04:15:48;;;;;;;;;;;;;;;27.00;42.60;94382.22;4973752;28;6986;-62
2023/05/09 04:18:25;;;;;;;;;;;;;;;26.97;42.57;94366.69;4975637;28;7024;-62
2023/05/09 04:20:52;;;;;;;;;;;;;;;26.95;42.63;94366.47;4969988;28;6993;-62
2023/05/09 04:23:18;;;;;;;;;;;;;;;26.96;42.78;94367.97;4969602;28;9328;-62
2023/05/09 04:26:02;;;;;;;;;;;;;;;26.98;42.80;94370.19;4981796;28;9386;-62
2023/05/09 04:28:28;;;;;;;;;;;;;;;26.98;42.82;94382.00;4958317;28;8736;-62
2023/05/09 04:31:04;;;;;;;;;;;;;;;26.95;42.38;94380.25;4962930;28;9352;-61
2023/05/09 04:34:20;;;;;;;;;;;;;;;26.97;42.84;94377.00;4963723;28;8798;-61
2023/05/09 04:37:00;;;;;;;;;;;;;;;26.98;42.89;94372.97;4897537;29;9574;-61
2023/05/09 04:39:29;;;;;;;;;;;;;;;26.96;43.12;94369.97;4900482;29;9226;-61
2023/05/09 04:42:06;;;;;;;;;;;;;;;26.97;42.62;94369.44;4899463;29;7046;-61
2023/05/09 04:45:25;;;;;;;;;;;;;;;26.96;42.38;94381.00;4913845;29;9358;-61
2023/05/09 04:47:53;;;;;;;;;;;;;;;26.93;42.72;94380.03;4820888;29;6973;-61
2023/05/09 04:50:35;;;;;;;;;;;;;;;26.95;42.71;94374.03;4805373;29;9068;-61
2023/05/09 04:53:07;;;;;;;;;;;;;;;26.91;44.08;94352.22;4836371;29;7217;-61
2023/05/09 04:55:35;;;;;;;;;;;;;;;26.96;43.83;94356.94;4829228;29;7099;-61
2023/05/09 04:58:10;;;;;;;;;;;;;;;26.95;43.55;94360.94;4829970;29;9394;-61
2023/05/09 05:00:36;;;;;;;;;;;;;;;26.96;43.41;94367.22;4841232;29;7438;-62
2023/05/09 05:03:12;;;;;;;;;;;;;;;26.97;43.22;94365.97;4828119;29;7306;-62
2023/05/09 05:05:52;;;;;;;;;;;;;;;26.94;43.37;94367.75;4840340;29;9052;-62
2023/05/09 05:08:55;;;;;;;;;;;;;;;26.94;43.62;94369.75;4820170;29;9506;-61
2023/05/09 05:11:38;;;;;;;;;;;;;;;26.92;43.58;94364.00;4834604;29;8576;-62
2023/05/09 05:14:19;;;;;;;;;;;;;;;26.91;43.36;94366.00;4891713;29;8741;-61
2023/05/09 05:17:11;;;;;;;;;;;;;;;26.94;43.45;94375.28;4919980;29;7094;-60
2023/05/09 05:19:46;;;;;;;;;;;;;;;26.96;43.53;94369.97;4905420;29;9025;-62
2023/05/09 05:22:12;;;;;;;;;;;;;;;26.95;44.11;94363.69;4921864;29;7246;-62
2023/05/09 05:25:04;;;;;;;;;;;;;;;26.96;43.65;94365.22;5017912;28;7322;-62
2023/05/09 05:27:30;;;;;;;;;;;;;;;26.94;43.63;94362.22;5017706;28;9147;-61
2023/05/09 05:30:04;;;;;;;;;;;;;;;26.94;43.46;94359.47;5026633;28;7344;-61
2023/05/09 05:32:36;;;;;;;;;;;;;;;26.94;43.73;94361.47;5016298;28;7231;-61
2023/05/09 05:35:04;;;;;;;;;;;;;;;26.90;43.79;94356.97;5017917;28;8537;-61
2023/05/09 05:37:32;;;;;;;;;;;;;;;26.92;42.99;94359.97;5019710;28;7205;-62
2023/05/09 05:40:00;;;;;;;;;;;;;;;26.91;43.15;94354.97;4997321;28;8623;-61
2023/05/09 05:42:33;;;;;;;;;;;;;;;26.92;43.07;94353.72;5016893;28;8823;-61
2023/05/09 05:45:03;;;;;;;;;;;;;;;26.92;42.59;94362.00;5022982;28;8474;-61
2023/05/09 05:47:45;;;;;;;;;;;;;;;26.94;43.14;94361.47;5022078;28;7250;-61
2023/05/09 05:50:20;;;;;;;;;;;;;;;26.94;43.35;94367.75;5004572;28;7255;-61
2023/05/09 05:53:19;;;;;;;;;;;;;;;26.92;43.11;94364.75;5014520;28;7255;-61
2023/05/09 05:55:48;;;;;;;;;;;;;;;26.92;43.00;94359.97;4971890;28;8132;-61
2023/05/09 05:58:23;;;;;;;;;;;;;;;26.92;43.17;94353.72;4953944;28;7266;-61
2023/05/09 06:00:51;;;;;;;;;;;;;;;26.94;43.17;94359.47;4944695;28;7461;-61
2023/05/09 06:03:53;;;;;;;;;;;;;;;26.92;43.09;94350.97;4972121;28;9176;-61
2023/05/09 06:06:30;;;;;;;;;;;;;;;26.90;42.86;94345.22;4915994;29;8489;-61
2023/05/09 06:09:29;;;;;;;;;;;;;;;26.87;43.21;94337.97;4906256;29;7279;-61
2023/05/09 06:12:07;;;;;;;;;;;;;;;26.90;42.61;94343.19;4860444;29;8031;-61
2023/05/09 06:14:43;;;;;;;;;;;;;;;26.90;43.10;94351.47;4878249;29;7230;-61
2023/05/09 06:17:10;;;;;;;;;;;;;;;26.92;42.88;94348.91;4877795;29;7283;-61
2023/05/09 06:19:49;;;;;;;;;;;;;;;26.91;42.62;94341.16;4878934;29;7051;-61
2023/05/09 06:22:34;;;;;;;;;;;;;;;26.89;42.93;94335.44;4878467;29;9272;-61
2023/05/09 06:25:00;;;;;;;;;;;;;;;26.89;43.27;94332.66;4877981;29;7253;-62
2023/05/09 06:27:30;;;;;;;;;;;;;;;26.92;42.91;94339.91;4872466;29;9254;-62
2023/05/09 06:29:56;;;;;;;;;;;;;;;26.91;42.67;94327.38;4871335;29;7022;-61
2023/05/09 06:32:23;;;;;;;;;;;;;;;26.89;43.05;94327.16;4891821;29;7038;-63
2023/05/09 06:34:49;;;;;;;;;;;;;;;26.89;43.09;94327.16;4892896;29;7368;-62
2023/05/09 06:37:15;;;;;;;;;;;;;;;26.89;43.51;94324.38;4880243;29;7617;-62
2023/05/09 06:39:41;;;;;;;;;;;;;;;26.89;43.11;94325.13;4887810;29;7169;-62
2023/05/09 06:42:08;;;;;;;;;;;;;;;26.90;43.19;94328.66;4902987;29;7022;-62
2023/05/09 06:44:34;;;;;;;;;;;;;;;26.89;43.29;94327.91;4898953;29;7364;-62
2023/05/09 06:47:31;;;;;;;;;;;;;;;26.90;43.43;94323.84;4928975;28;9118;-62
2023/05/09 06:50:16;;;;;;;;;;;;;;;26.92;43.14;94324.09;5012478;28;9147;-62
2023/05/09 06:52:54;;;;;;;;;;;;;;;26.90;43.32;94317.63;4993131;28;9148;-61
2023/05/09 06:55:26;;;;;;;;;;;;;;;26.89;43.40;94318.88;5015150;28;9078;-62
2023/05/09 06:57:59;;;;;;;;;;;;;;;26.92;43.54;94308.81;5019322;28;7231;-61
2023/05/09 07:00:25;;;;;;;;;;;;;;;26.94;43.31;94311.78;5020120;28;9143;-62
2023/05/09 07:03:02;;;;;;;;;;;;;;;26.91;43.19;94305.28;5020863;28;8395;-62
2023/05/09 07:05:34;;;;;;;;;;;;;;;26.90;43.17;94301.78;4989048;28;7264;-62
2023/05/09 07:08:08;;;;;;;;;;;;;;;26.88;43.77;94303.59;5014357;28;7122;-62
2023/05/09 07:10:43;;;;;;;;;;;;;;;26.91;43.32;94291.50;5015376;28;7338;-62
2023/05/09 07:13:24;;;;;;;;;;;;;;;26.92;43.22;94287.47;5014918;28;9138;-62
2023/05/09 07:16:28;;;;;;;;;;;;;;;26.98;43.37;94285.38;5017757;28;7118;-62
2023/05/09 07:19:11;;;;;;;;;;;;;;;26.99;43.03;94281.34;5018468;28;7044;-61
2023/05/09 07:21:45;;;;;;;;;;;;;;;27.03;43.16;94281.81;5014800;28;9467;-62
2023/05/09 07:24:11;;;;;;;;;;;;;;;27.03;43.28;94273.53;4995844;28;9445;-62
2023/05/09 07:26:56;;;;;;;;;;;;;;;26.99;43.45;94272.34;5017167;28;8920;-63
2023/05/09 07:29:23;;;;;;;;;;;;;;;27.00;43.58;94263.53;5008058;28;7055;-62
2023/05/09 07:32:06;;;;;;;;;;;;;;;27.02;43.31;94255.47;5024366;28;7245;-62
2023/05/09 07:34:48;;;;;;;;;;;;;;;26.99;43.78;94256.50;5012291;28;9345;-62
2023/05/09 07:37:20;;;;;;;;;;;;;;;26.99;43.57;94253.00;5018423;28;8980;-62
2023/05/09 07:39:55;;;;;;;;;;;;;;;26.98;43.67;94243.22;5014939;28;8818;-62
2023/05/09 07:42:23;;;;;;;;;;;;;;;26.97;43.32;94230.72;4994314;28;7123;-63
2023/05/09 07:44:50;;;;;;;;;;;;;;;26.98;43.75;94246.00;5012162;28;9170;-62
2023/05/09 07:47:16;;;;;;;;;;;;;;;26.97;43.22;94242.47;5002998;28;9242;-62
2023/05/09 07:50:03;;;;;;;;;;;;;;;27.01;43.09;94240.19;4998314;28;8986;-62
2023/05/09 07:52:43;;;;;;;;;;;;;;;27.01;43.44;94233.91;4998734;28;9432;-62
2023/05/09 07:55:15;;;;;;;;;;;;;;;27.00;43.03;94233.16;5000710;28;9014;-62
2023/05/09 07:57:41;;;;;;;;;;;;;;;27.02;43.24;94236.13;5025256;28;8749;-63
2023/05/09 08:00:09;;;;;;;;;;;;;;;27.04;42.85;94232.84;5017565;28;6984;-62
2023/05/09 08:02:43;;;;;;;;;;;;;;;27.02;43.29;94222.34;5020071;28;7022;-63
2023/05/09 08:05:10;;;;;;;;;;;;;;;27.02;43.49;94219.56;5016968;28;8090;-62
2023/05/09 08:07:36;;;;;;;;;;;;;;;27.02;43.86;94208.53;5018827;28;7067;-62
2023/05/09 08:10:02;;;;;;;;;;;;;;;27.04;43.16;94208.00;5019181;28;7377;-62
2023/05/09 08:12:28;;;;;;;;;;;;;;;27.03;43.05;94215.56;5021011;28;7227;-62
2023/05/09 08:14:55;;;;;;;;;;;;;;;27.03;43.08;94206.53;5022717;28;7288;-62
2023/05/09 08:17:21;;;;;;;;;;;;;;;27.04;43.17;94205.25;5012947;28;8933;-62
2023/05/09 08:19:52;;;;;;;;;;;;;;;27.02;43.53;94202.25;5013589;28;9063;-62
2023/05/09 08:22:19;;;;;;;;;;;;;;;27.04;43.23;94197.72;5002054;28;7022;-62
2023/05/09 08:24:45;;;;;;;;;;;;;;;27.03;42.86;94193.47;5015056;28;7038;-62
2023/05/09 08:27:18;;;;;;;;;;;;;;;27.03;43.16;94196.22;5016568;28;9137;-62
2023/05/09 08:30:06;;;;;;;;;;;;;;;27.04;43.02;94194.19;5017840;28;7447;-62
2023/05/09 08:32:34;;;;;;;;;;;;;;;27.01;42.94;94176.69;5014516;28;8957;-62
2023/05/09 08:35:07;;;;;;;;;;;;;;;27.05;43.62;94174.38;5014785;28;7495;-62
2023/05/09 08:37:37;;;;;;;;;;;;;;;27.09;43.16;94179.56;5018119;28;7374;-62
2023/05/09 08:40:18;;;;;;;;;;;;;;;27.10;43.35;94172.78;5025499;28;7353;-62
2023/05/09 08:42:48;;;;;;;;;;;;;;;27.08;43.62;94162.25;5020904;28;7253;-62
2023/05/09 08:45:25;;;;;;;;;;;;;;;27.09;42.92;94163.00;5016511;28;8805;-63
2023/05/09 08:47:54;;;;;;;;;;;;;;;27.08;43.25;94156.75;5023863;28;9252;-63
2023/05/09 08:50:30;;;;;;;;;;;;;;;27.10;43.27;94159.00;5016756;28;9377;-63
2023/05/09 08:53:06;;;;;;;;;;;;;;;27.10;43.27;94156.94;5003866;28;7160;-63
2023/05/09 08:56:09;;;;;;;;;;;;;;;27.08;43.16;94151.22;5020995;28;9046;-62
2023/05/09 08:58:51;;;;;;;;;;;;;;;27.10;43.07;94147.94;5010848;28;7080;-62
2023/05/09 09:01:48;;;;;;;;;;;;;;;27.11;43.33;94147.41;5029203;28;7280;-62
2023/05/09 09:04:25;;;;;;;;;;;;;;;27.10;42.92;94136.91;4973505;28;9348;-62
2023/05/09 09:06:55;;;;;;;;;;;;;;;27.14;42.97;94132.56;4962352;28;7599;-61
2023/05/09 09:09:50;;;;;;;;;;;;;;;27.16;43.39;94129.28;4967677;28;9023;-62
2023/05/09 09:12:37;;;;;;;;;;;;;;;27.17;42.88;94125.97;4974233;28;7057;-61
2023/05/09 09:16:01;;;;;;;;;;;;;;;27.17;43.14;94125.97;4973762;28;7278;-61
2023/05/09 09:18:41;;;;;;;;;;;;;;;27.17;43.03;94114.94;4908700;29;8354;-62
2023/05/09 09:21:17;;;;;;;;;;;;;;;27.19;42.92;94117.16;4915478;29;7117;-62
2023/05/09 09:23:46;;;;;;;;;;;;;;;27.18;43.15;94110.16;4916105;29;7057;-63
2023/05/09 09:27:02;;;;;;;;;;;;;;;27.20;43.14;94110.38;4893989;29;7106;-63
2023/05/09 09:29:45;;;;;;;;;;;;;;;27.20;43.04;94113.88;4916010;29;7357;-63
2023/05/09 09:32:32;;;;;;;;;;;;;;;27.20;43.24;94099.31;4913562;29;8956;-62
2023/05/09 09:35:10;;;;;;;;;;;;;;;27.16;43.24;94094.13;4913678;29;7174;-63
2023/05/09 09:37:46;;;;;;;;;;;;;;;27.20;42.68;94093.81;4913746;29;7241;-62
2023/05/09 09:40:28;;;;;;;;;;;;;;;27.20;42.86;94099.31;4902211;28;9161;-62
2023/05/09 09:43:10;;;;;;;;;;;;;;;27.19;43.09;94095.06;4934991;28;9146;-62
2023/05/09 09:45:40;;;;;;;;;;;;;;;27.18;42.84;94086.06;4935783;28;7223;-62
2023/05/09 09:49:03;;;;;;;;;;;;;;;27.20;42.90;94080.75;4933926;28;7182;-62
2023/05/09 09:51:39;;;;;;;;;;;;;;;27.20;43.07;94069.72;4910851;28;7348;-62
2023/05/09 09:54:19;;;;;;;;;;;;;;;27.22;43.23;94067.16;4958602;28;7954;-62
2023/05/09 09:57:32;;;;;;;;;;;;;;;27.23;42.75;94063.09;4960889;28;9559;-63
2023/05/09 09:59:58;;;;;;;;;;;;;;;27.22;42.79;94067.16;4894386;29;9070;-63
2023/05/09 10:02:51;;;;;;;;;;;;;;;27.25;42.89;94059.84;4875975;29;7039;-63
2023/05/09 10:05:33;;;;;;;;;;;;;;;27.24;42.94;94048.03;4878715;29;8275;-62
2023/05/09 10:08:00;;;;;;;;;;;;;;;27.23;42.57;94038.25;4878581;29;8937;-62
2023/05/09 10:10:30;;;;;;;;;;;;;;;27.23;42.81;94038.25;4897436;29;7544;-62
2023/05/09 10:13:15;;;;;;;;;;;;;;;27.23;42.68;94029.97;4896495;29;9070;-62
2023/05/09 10:15:54;;;;;;;;;;;;;;;27.23;42.61;94029.97;4878162;29;9234;-62
2023/05/09 10:18:29;;;;;;;;;;;;;;;27.24;42.60;94019.69;4902171;29;7201;-62
2023/05/09 10:21:02;;;;;;;;;;;;;;;27.22;42.82;94020.22;4879242;29;9051;-63
2023/05/09 10:23:36;;;;;;;;;;;;;;;27.24;42.74;94019.69;4932685;28;7023;-62
2023/05/09 10:26:36;;;;;;;;;;;;;;;27.26;42.66;94017.13;4942851;28;7236;-62
2023/05/09 10:29:21;;;;;;;;;;;;;;;27.27;42.18;94008.34;4955756;28;7281;-63
2023/05/09 10:32:30;;;;;;;;;;;;;;;27.26;42.58;94006.84;4952081;28;7059;-62
2023/05/09 10:35:35;;;;;;;;;;;;;;;27.26;42.11;94006.09;4963248;28;6861;-62
2023/05/09 10:38:21;;;;;;;;;;;;;;;27.28;42.42;94004.28;4970595;28;8757;-62
2023/05/09 10:41:01;;;;;;;;;;;;;;;27.27;42.41;94005.56;4961349;28;7342;-62
2023/05/09 10:43:47;;;;;;;;;;;;;;;27.25;41.92;93997.06;4973022;28;7030;-62
2023/05/09 10:46:33;;;;;;;;;;;;;;;27.28;42.16;93998.00;4961378;28;7248;-63
2023/05/09 10:49:03;;;;;;;;;;;;;;;27.30;41.96;93993.44;4980259;28;7454;-62
2023/05/09 10:52:01;;;;;;;;;;;;;;;27.34;41.89;93985.59;4964419;28;9576;-62
2023/05/09 10:54:37;;;;;;;;;;;;;;;27.36;41.37;93983.06;4936197;28;7359;-62
2023/05/09 10:57:18;;;;;;;;;;;;;;;27.38;41.73;93974.97;4935567;28;9635;-63
2023/05/09 10:59:53;;;;;;;;;;;;;;;27.39;41.30;93970.97;4934775;29;7265;-62
2023/05/09 11:02:33;;;;;;;;;;;;;;;27.42;41.12;93966.38;4921154;28;7303;-62
2023/05/09 11:08:52;;;;;;;;;;;;;;;27.40;41.30;93946.84;4921100;29;7206;-62
2023/05/09 11:11:25;;;;;;;;;;;;;;;27.41;41.13;93946.31;4915118;29;7020;-63
2023/05/09 11:13:57;;;;;;;;;;;;;;;27.36;41.42;93930.59;4907676;29;7151;-62
2023/05/09 11:17:00;;;;;;;;;;;;;;;27.39;41.47;93932.28;4913113;29;7261;-62
2023/05/09 11:19:49;;;;;;;;;;;;;;;27.44;41.22;93925.16;4914267;29;8914;-62
2023/05/09 11:22:42;;;;;;;;;;;;;;;27.45;41.14;93923.88;4892142;29;7037;-62
2023/05/09 11:25:27;;;;;;;;;;;;;;;27.48;41.21;93928.34;4900347;29;9316;-62
2023/05/09 11:28:05;;;;;;;;;;;;;;;27.48;41.23;93915.28;4919411;29;9585;-62
2023/05/09 11:31:26;;;;;;;;;;;;;;;27.48;41.23;93914.53;4937422;28;7140;-63
2023/05/09 11:34:10;;;;;;;;;;;;;;;27.46;41.44;93911.56;4910845;29;9352;-62
2023/05/09 11:37:08;;;;;;;;;;;;;;;27.46;41.27;93906.03;4907829;29;9137;-62
2023/05/09 11:43:09;;;;;;;;;;;;;;;27.53;41.29;93906.13;4870728;29;9200;-62
2023/05/09 11:45:49;;;;;;;;;;;;;;;27.51;40.81;93896.91;4874557;29;7268;-62
2023/05/09 11:48:21;;;;;;;;;;;;;;;27.53;41.21;93895.06;4860271;29;10000;-61
2023/05/09 11:51:06;;;;;;;;;;;;;;;27.53;41.03;93892.31;4876260;29;8241;-62
2023/05/09 11:53:33;;;;;;;;;;;;;;;27.53;41.56;93888.81;4877375;29;8772;-62
2023/05/09 11:56:21;;;;;;;;;;;;;;;27.57;41.05;93887.22;4861514;29;9120;-62
2023/05/09 11:59:10;;;;;;;;;;;;;;;27.56;41.00;93882.94;4879963;29;7260;-62
2023/05/09 12:01:54;;;;;;;;;;;;;;;27.60;40.89;93885.38;4879129;29;8991;-62
2023/05/09 12:05:04;;;;;;;;;;;;;;;27.59;41.09;93878.38;4877184;29;7518;-62
2023/05/09 12:07:33;;;;;;;;;;;;;;;27.60;41.25;93874.31;4877917;29;7282;-62
2023/05/09 12:10:19;;;;;;;;;;;;;;;27.62;41.43;93874.56;4926873;29;9952;-62
2023/05/09 12:13:16;;;;;;;;;;;;;;;27.63;40.98;93865.72;4938841;28;9055;-62
2023/05/09 12:16:16;;;;;;;;;;;;;;;27.58;41.06;93865.84;4918285;29;7111;-62
2023/05/09 12:19:31;;;;;;;;;;;;;;;27.58;40.98;93866.59;4886876;28;9997;-62
2023/05/09 12:22:16;;;;;;;;;;;;;;;27.56;41.34;93851.81;4932215;28;7337;-62
2023/05/09 12:24:42;;;;;;;;;;;;;;;27.55;41.27;93850.34;4935081;28;7120;-62
2023/05/09 12:27:08;;;;;;;;;;;;;;;27.53;41.24;93850.16;4922179;28;7291;-61
2023/05/09 12:29:35;;;;;;;;;;;;;;;27.53;41.13;93845.34;4932850;28;9142;-62
2023/05/09 12:32:01;;;;;;;;;;;;;;;27.53;41.20;93839.81;4930926;28;7114;-62
2023/05/09 12:34:34;;;;;;;;;;;;;;;27.54;41.13;93833.03;4920353;28;7141;-62
2023/05/09 12:37:02;;;;;;;;;;;;;;;27.53;41.22;93833.56;4920046;28;9117;-62
2023/05/09 12:39:30;;;;;;;;;;;;;;;27.60;40.75;93841.16;4936800;28;7611;-63
2023/05/09 12:42:28;;;;;;;;;;;;;;;27.59;41.09;93834.19;4937902;28;7048;-62
2023/05/09 12:44:58;;;;;;;;;;;;;;;27.58;41.00;93832.69;4897140;28;7125;-62
2023/05/09 12:47:30;;;;;;;;;;;;;;;27.57;40.99;93820.16;4938471;28;9874;-62
2023/05/09 12:50:00;;;;;;;;;;;;;;;27.55;40.95;93829.00;4913174;29;7043;-62
2023/05/09 12:52:34;;;;;;;;;;;;;;;27.52;41.47;93824.53;4905989;29;7122;-62
2023/05/09 12:55:11;;;;;;;;;;;;;;;27.50;40.96;93838.16;4953630;28;9042;-63
2023/05/09 12:57:38;;;;;;;;;;;;;;;27.50;41.58;93832.63;4972340;28;9557;-62
2023/05/09 13:00:16;;;;;;;;;;;;;;;27.47;41.12;93830.91;5012324;28;9088;-62
2023/05/09 13:02:45;;;;;;;;;;;;;;;27.52;40.88;93830.06;5014988;28;7061;-62
2023/05/09 13:05:29;;;;;;;;;;;;;;;27.58;40.86;93821.63;5012686;28;7035;-62
2023/05/09 13:07:56;;;;;;;;;;;;;;;27.59;40.84;93823.88;5021295;28;7213;-62
2023/05/09 13:11:01;;;;;;;;;;;;;;;27.60;41.03;93814.28;5002632;28;9583;-63
2023/05/09 13:13:54;;;;;;;;;;;;;;;27.61;40.89;93820.56;5026611;28;7067;-62
2023/05/09 13:16:31;;;;;;;;;;;;;;;27.63;40.88;93810.47;5024469;28;7204;-63
2023/05/09 13:19:26;;;;;;;;;;;;;;;27.64;40.76;93803.66;5016581;28;7050;-63
2023/05/09 13:22:05;;;;;;;;;;;;;;;27.66;41.03;93811.41;4970396;28;9078;-63
2023/05/09 13:24:32;;;;;;;;;;;;;;;27.68;40.69;93805.34;4973424;28;7240;-62
2023/05/09 13:27:13;;;;;;;;;;;;;;;27.63;41.01;93796.66;4960762;28;7186;-62
2023/05/09 13:30:08;;;;;;;;;;;;;;;27.66;40.75;93799.63;4955040;28;7019;-62
2023/05/09 13:33:13;;;;;;;;;;;;;;;27.67;40.75;93787.28;4964405;28;9002;-62
2023/05/09 13:36:00;;;;;;;;;;;;;;;27.64;40.90;93784.31;4964630;28;9037;-63
2023/05/09 13:38:39;;;;;;;;;;;;;;;27.67;40.97;93785.25;4958995;28;7446;-63
2023/05/09 13:41:22;;;;;;;;;;;;;;;27.67;41.08;93774.19;4971467;28;7127;-62
2023/05/09 13:44:23;;;;;;;;;;;;;;;27.67;40.97;93779.72;4960205;28;9034;-63
2023/05/09 13:47:10;;;;;;;;;;;;;;;27.68;41.37;93774.94;4902034;29;8786;-62
2023/05/09 13:50:21;;;;;;;;;;;;;;;27.69;41.19;93773.69;4914080;29;8817;-62
2023/05/09 13:53:11;;;;;;;;;;;;;;;27.68;40.98;93764.66;4913945;29;6984;-62
2023/05/09 13:55:50;;;;;;;;;;;;;;;27.67;41.11;93754.84;4896762;29;9389;-62
2023/05/09 13:58:31;;;;;;;;;;;;;;;27.68;40.84;93753.59;4934882;28;9034;-62
2023/05/09 14:01:07;;;;;;;;;;;;;;;27.67;41.19;93756.88;4955180;28;7254;-63
2023/05/09 14:04:28;;;;;;;;;;;;;;;27.68;41.17;93750.09;4956094;28;9367;-62
2023/05/09 14:07:20;;;;;;;;;;;;;;;27.70;40.91;93747.53;4953294;28;7479;-63
2023/05/09 14:09:58;;;;;;;;;;;;;;;27.68;41.14;93750.09;4946921;28;7130;-62